createdAt,value
2023-04-25T00:01:29.316Z,6.10
2023-04-25T00:03:57.744Z,6.10
2023-04-25T00:06:27.832Z,6.10
2023-04-25T00:08:56.973Z,6.10
2023-04-25T00:11:24.949Z,6.00
2023-04-25T00:13:52.041Z,6.20
2023-04-25T00:16:19.733Z,6.30
2023-04-25T00:18:52.581Z,6.30
2023-04-25T00:21:21.179Z,6.20
2023-04-25T00:23:48.942Z,6.10
2023-04-25T00:26:16.383Z,5.90
2023-04-25T00:28:43.728Z,5.80
2023-04-25T00:31:11.398Z,5.90
2023-04-25T00:33:38.951Z,5.90
2023-04-25T00:36:07.022Z,5.90
2023-04-25T00:38:34.406Z,6.00
2023-04-25T00:41:01.694Z,5.90
2023-04-25T00:43:29.103Z,5.80
2023-04-25T00:45:58.872Z,5.80
2023-04-25T00:48:26.303Z,5.60
2023-04-25T00:50:55.478Z,5.50
2023-04-25T00:53:23.378Z,5.50
2023-04-25T00:55:52.389Z,5.50
2023-04-25T00:58:20.476Z,5.40
2023-04-25T01:00:48.994Z,5.40
2023-04-25T01:03:21.317Z,5.50
2023-04-25T01:05:49.422Z,5.40
2023-04-25T01:08:16.820Z,5.30
2023-04-25T01:10:44.256Z,5.50
2023-04-25T01:13:11.664Z,5.60
2023-04-25T01:15:39.180Z,5.50
2023-04-25T01:18:07.567Z,5.40
2023-04-25T01:20:35.307Z,5.40
2023-04-25T01:23:04.153Z,5.30
2023-04-25T01:25:32.474Z,5.40
2023-04-25T01:28:00.043Z,5.50
2023-04-25T01:30:28.629Z,5.20
2023-04-25T01:32:57.271Z,5.00
2023-04-25T01:35:25.307Z,5.10
2023-04-25T01:37:52.944Z,5.00
2023-04-25T01:40:20.395Z,5.00
2023-04-25T01:42:47.831Z,5.10
2023-04-25T01:45:15.214Z,5.10
2023-04-25T01:47:44.304Z,5.00
2023-04-25T01:50:12.773Z,4.80
2023-04-25T01:52:40.387Z,4.80
2023-04-25T01:55:08.225Z,4.80
2023-04-25T01:57:35.403Z,5.00
2023-04-25T02:00:04.781Z,5.20
2023-04-25T02:02:32.025Z,5.10
2023-04-25T02:04:59.425Z,4.80
2023-04-25T02:07:27.954Z,4.50
2023-04-25T02:09:55.381Z,4.70
2023-04-25T02:12:22.477Z,4.80
2023-04-25T02:14:49.678Z,4.80
2023-04-25T02:17:17.427Z,4.90
2023-04-25T02:19:45.370Z,4.70
2023-04-25T02:22:13.107Z,4.40
2023-04-25T02:24:40.541Z,4.50
2023-04-25T02:27:09.105Z,4.20
2023-04-25T02:29:36.624Z,4.20
2023-04-25T02:32:04.234Z,4.30
2023-04-25T02:34:31.618Z,4.20
2023-04-25T02:36:58.909Z,4.00
2023-04-25T02:39:28.451Z,4.10
2023-04-25T02:41:56.140Z,4.10
2023-04-25T02:44:23.501Z,4.20
2023-04-25T02:46:50.766Z,4.20
2023-04-25T02:49:18.353Z,4.10
2023-04-25T02:51:45.858Z,4.20
2023-04-25T02:54:13.186Z,4.30
2023-04-25T02:56:40.785Z,4.40
2023-04-25T02:59:08.217Z,4.20
2023-04-25T03:01:36.072Z,4.10
2023-04-25T03:04:03.648Z,4.20
2023-04-25T03:06:32.204Z,4.20
2023-04-25T03:08:59.471Z,4.20
2023-04-25T03:11:27.073Z,4.20
2023-04-25T03:13:54.496Z,4.00
2023-04-25T03:16:22.239Z,3.80
2023-04-25T03:18:51.190Z,3.60
2023-04-25T03:21:18.874Z,3.50
2023-04-25T03:23:46.298Z,3.30
2023-04-25T03:26:13.545Z,3.20
2023-04-25T03:28:41.529Z,3.20
2023-04-25T03:31:08.691Z,3.20
2023-04-25T03:33:36.234Z,3.30
2023-04-25T03:36:03.989Z,3.10
2023-04-25T03:38:31.371Z,3.10
2023-04-25T03:40:59.005Z,3.10
2023-04-25T03:43:26.498Z,3.10
2023-04-25T03:45:54.054Z,3.20
2023-04-25T03:48:23.907Z,3.30
2023-04-25T03:50:51.216Z,3.10
2023-04-25T03:53:18.576Z,3.00
2023-04-25T03:55:45.947Z,3.20
2023-04-25T03:58:13.176Z,3.20
2023-04-25T04:00:40.671Z,3.10
2023-04-25T04:03:08.022Z,2.90
2023-04-25T04:05:35.587Z,3.10
2023-04-25T04:08:03.319Z,3.10
2023-04-25T04:10:30.739Z,3.10
2023-04-25T04:12:57.914Z,3.10
2023-04-25T04:15:25.274Z,3.10
2023-04-25T04:17:53.119Z,2.90
2023-04-25T04:20:20.483Z,3.10
2023-04-25T04:22:48.615Z,3.20
2023-04-25T04:25:16.213Z,3.30
2023-04-25T04:27:46.062Z,3.30
2023-04-25T04:30:13.789Z,3.30
2023-04-25T04:32:41.016Z,3.40
2023-04-25T04:35:10.382Z,3.40
2023-04-25T04:37:38.278Z,3.50
2023-04-25T04:40:06.501Z,3.50
2023-04-25T04:42:34.149Z,3.60
2023-04-25T04:45:02.938Z,3.70
2023-04-25T04:47:34.228Z,3.80
2023-04-25T04:50:01.645Z,3.80
2023-04-25T04:52:29.056Z,3.90
2023-04-25T04:54:56.809Z,4.00
2023-04-25T04:57:24.196Z,3.90
2023-04-25T04:59:52.118Z,4.00
2023-04-25T05:02:19.405Z,4.20
2023-04-25T05:04:46.792Z,4.30
2023-04-25T05:07:14.454Z,4.30
2023-04-25T05:09:42.079Z,4.40
2023-04-25T05:12:09.496Z,4.50
2023-04-25T05:14:37.282Z,4.90
2023-04-25T05:17:07.911Z,5.00
2023-04-25T05:19:35.565Z,5.10
2023-04-25T05:22:03.702Z,5.20
2023-04-25T05:24:31.954Z,5.50
2023-04-25T05:26:59.696Z,5.50
2023-04-25T05:29:27.084Z,5.60
2023-04-25T05:31:54.672Z,5.80
2023-04-25T05:34:22.223Z,6.00
2023-04-25T05:36:50.180Z,6.10
2023-04-25T05:39:18.869Z,6.10
2023-04-25T05:41:46.396Z,6.10
2023-04-25T05:44:13.883Z,6.30
2023-04-25T05:46:41.181Z,6.40
2023-04-25T05:49:08.595Z,6.60
2023-04-25T05:51:36.025Z,6.80
2023-04-25T05:54:03.239Z,7.00
2023-04-25T05:56:30.701Z,7.10
2023-04-25T05:58:57.993Z,7.20
2023-04-25T06:01:25.247Z,7.40
2023-04-25T06:03:54.134Z,7.60
2023-04-25T06:06:22.028Z,7.70
2023-04-25T06:08:49.514Z,7.70
2023-04-25T06:11:17.013Z,7.80
2023-04-25T06:13:44.252Z,7.90
2023-04-25T06:16:11.932Z,8.00
2023-04-25T06:18:39.221Z,8.00
2023-04-25T06:21:06.765Z,8.20
2023-04-25T06:23:33.858Z,8.30
2023-04-25T06:26:01.228Z,8.20
2023-04-25T06:28:28.726Z,8.40
2023-04-25T06:30:56.358Z,8.40
2023-04-25T06:33:25.688Z,9.10
2023-04-25T06:35:53.228Z,9.60
2023-04-25T06:38:20.631Z,10.10
2023-04-25T06:40:48.249Z,10.70
2023-04-25T06:43:15.779Z,10.90
2023-04-25T06:45:44.753Z,11.70
2023-04-25T06:48:13.209Z,12.70
2023-04-25T06:50:40.841Z,12.20
2023-04-25T06:53:10.172Z,12.30
2023-04-25T06:55:37.556Z,12.10
2023-04-25T06:58:04.948Z,12.20
2023-04-25T07:00:33.509Z,12.80
2023-04-25T07:03:01.608Z,12.90
2023-04-25T07:05:29.058Z,13.50
2023-04-25T07:07:56.377Z,13.90
2023-04-25T07:10:23.867Z,14.20
2023-04-25T07:12:51.026Z,14.70
2023-04-25T07:15:18.167Z,15.00
2023-04-25T07:17:45.739Z,14.70
2023-04-25T07:20:13.551Z,14.90
2023-04-25T07:22:41.026Z,15.00
2023-04-25T07:25:09.825Z,14.80
2023-04-25T07:27:37.176Z,14.70
2023-04-25T07:30:05.521Z,15.30
2023-04-25T07:32:32.987Z,14.50
2023-04-25T07:35:00.261Z,14.50
2023-04-25T07:37:27.691Z,14.50
2023-04-25T07:39:54.953Z,14.60
2023-04-25T07:42:22.710Z,14.70
2023-04-25T07:44:51.450Z,14.30
2023-04-25T07:47:20.486Z,14.30
2023-04-25T07:49:48.317Z,14.20
2023-04-25T07:52:15.795Z,13.80
2023-04-25T07:54:43.198Z,13.70
2023-04-25T07:57:10.898Z,13.60
2023-04-25T07:59:38.256Z,13.60
2023-04-25T08:02:05.699Z,13.70
2023-04-25T08:04:33.341Z,13.60
2023-04-25T08:07:01.117Z,13.20
2023-04-25T08:09:28.732Z,12.80
2023-04-25T08:11:55.949Z,12.60
2023-04-25T08:14:23.355Z,12.50
2023-04-25T08:16:51.032Z,12.40
2023-04-25T08:19:18.594Z,12.20
2023-04-25T08:21:45.873Z,11.90
2023-04-25T08:24:13.284Z,11.60
2023-04-25T08:26:42.007Z,11.40
2023-04-25T08:29:09.479Z,11.50
2023-04-25T08:31:37.056Z,11.40
2023-04-25T08:34:04.501Z,11.30
2023-04-25T08:36:39.065Z,11.00
2023-04-25T08:39:07.144Z,11.10
2023-04-25T08:41:34.494Z,11.10
2023-04-25T08:44:02.243Z,11.60
2023-04-25T08:46:30.066Z,11.80
2023-04-25T08:49:01.113Z,11.50
2023-04-25T08:51:29.234Z,11.70
2023-04-25T08:53:58.806Z,11.50
2023-04-25T08:56:29.046Z,11.60
2023-04-25T08:58:56.578Z,11.30
2023-04-25T09:01:24.271Z,11.00
2023-04-25T09:03:52.009Z,10.80
2023-04-25T09:06:19.513Z,10.70
2023-04-25T09:08:47.073Z,10.40
2023-04-25T09:11:16.148Z,10.20
2023-04-25T09:13:43.669Z,10.30
2023-04-25T09:16:11.585Z,10.20
2023-04-25T09:18:39.161Z,10.00
2023-04-25T09:21:14.926Z,9.90
2023-04-25T09:23:47.246Z,10.00
2023-04-25T09:26:19.515Z,10.10
2023-04-25T09:28:49.308Z,10.30
2023-04-25T09:31:26.601Z,10.80
2023-04-25T09:34:02.484Z,11.00
2023-04-25T09:36:31.700Z,11.10
2023-04-25T09:38:59.235Z,11.00
2023-04-25T09:41:26.624Z,11.40
2023-04-25T09:43:53.871Z,11.90
2023-04-25T09:46:22.292Z,12.40
2023-04-25T09:48:51.731Z,12.50
2023-04-25T09:51:19.021Z,12.20
2023-04-25T09:53:51.387Z,12.30
2023-04-25T09:56:19.114Z,12.60
2023-04-25T09:58:46.279Z,12.80
2023-04-25T10:01:14.339Z,13.00
2023-04-25T10:03:43.146Z,13.20
2023-04-25T10:06:15.834Z,13.20
2023-04-25T10:08:43.156Z,13.10
2023-04-25T10:11:10.439Z,13.10
2023-04-25T10:13:37.735Z,12.90
2023-04-25T10:16:07.524Z,12.40
2023-04-25T10:18:35.293Z,12.50
2023-04-25T10:21:03.856Z,12.10
2023-04-25T10:23:32.286Z,11.80
2023-04-25T10:25:59.814Z,11.10
2023-04-25T10:28:27.113Z,11.00
2023-04-25T10:31:09.131Z,10.90
2023-04-25T10:33:41.243Z,10.60
2023-04-25T10:36:16.494Z,10.90
2023-04-25T10:38:44.403Z,11.00
2023-04-25T10:41:12.593Z,10.90
2023-04-25T10:43:42.711Z,11.00
2023-04-25T10:46:27.430Z,11.20
2023-04-25T10:48:56.306Z,11.40
2023-04-25T10:51:30.797Z,11.90
2023-04-25T10:54:01.304Z,12.30
2023-04-25T10:56:33.201Z,12.50
2023-04-25T10:59:07.981Z,12.20
2023-04-25T11:01:42.046Z,12.20
2023-04-25T11:04:35.392Z,12.00
2023-04-25T11:07:25.476Z,11.60
2023-04-25T11:09:52.881Z,11.50
2023-04-25T11:12:20.434Z,11.20
2023-04-25T11:14:47.836Z,11.10
2023-04-25T11:17:15.443Z,10.90
2023-04-25T11:19:43.193Z,10.90
2023-04-25T11:22:11.834Z,11.20
2023-04-25T11:24:39.311Z,11.40
2023-04-25T11:27:09.591Z,11.40
2023-04-25T11:29:36.933Z,11.70
2023-04-25T11:32:04.314Z,11.70
2023-04-25T11:34:32.467Z,11.40
2023-04-25T11:37:00.957Z,11.60
2023-04-25T11:39:30.819Z,11.80
2023-04-25T11:41:58.337Z,11.90
2023-04-25T11:44:25.800Z,12.00
2023-04-25T11:46:53.215Z,12.40
2023-04-25T11:49:20.735Z,12.60
2023-04-25T11:51:49.125Z,12.70
2023-04-25T11:54:16.727Z,12.60
2023-04-25T11:56:47.189Z,12.60
2023-04-25T11:59:14.466Z,12.60
2023-04-25T12:01:43.894Z,12.40
2023-04-25T12:04:24.981Z,12.10
2023-04-25T12:06:54.267Z,12.10
2023-04-25T12:09:32.401Z,12.20
2023-04-25T12:12:04.118Z,12.30
2023-04-25T12:14:36.171Z,12.40
2023-04-25T12:17:05.384Z,12.50
2023-04-25T12:19:36.586Z,12.60
2023-04-25T12:22:06.647Z,12.30
2023-04-25T12:24:38.768Z,12.40
2023-04-25T12:27:07.730Z,12.30
2023-04-25T12:29:48.623Z,12.20
2023-04-25T12:32:19.109Z,12.00
2023-04-25T12:34:47.095Z,11.70
2023-04-25T12:37:14.934Z,11.70
2023-04-25T12:39:42.238Z,11.50
2023-04-25T12:42:13.316Z,11.50
2023-04-25T12:44:41.607Z,11.50
2023-04-25T12:47:09.376Z,11.60
2023-04-25T12:49:36.912Z,11.90
2023-04-25T12:52:04.223Z,11.70
2023-04-25T12:54:31.555Z,11.50
2023-04-25T12:56:59.805Z,11.90
2023-04-25T12:59:27.049Z,12.10
2023-04-25T13:01:54.609Z,12.30
2023-04-25T13:04:22.783Z,12.60
2023-04-25T13:06:50.235Z,12.60
2023-04-25T13:09:17.668Z,12.70
2023-04-25T13:11:45.178Z,12.90
2023-04-25T13:14:12.439Z,13.00
2023-04-25T13:16:39.951Z,13.00
2023-04-25T13:19:09.130Z,13.10
2023-04-25T13:21:36.338Z,13.30
2023-04-25T13:24:03.789Z,13.30
2023-04-25T13:26:31.391Z,13.50
2023-04-25T13:28:58.976Z,13.40
2023-04-25T13:31:26.236Z,13.40
2023-04-25T13:33:54.032Z,13.60
2023-04-25T13:36:21.534Z,13.70
2023-04-25T13:38:50.486Z,13.60
2023-04-25T13:41:20.133Z,13.60
2023-04-25T13:43:49.237Z,13.70
2023-04-25T13:46:35.264Z,13.40
2023-04-25T13:49:11.999Z,13.30
2023-04-25T13:51:40.977Z,13.00
2023-04-25T13:54:08.939Z,12.90
2023-04-25T13:56:36.590Z,12.80
2023-04-25T13:59:04.323Z,12.70
2023-04-25T14:01:35.623Z,12.60
2023-04-25T14:04:05.372Z,12.50
2023-04-25T14:06:33.455Z,12.70
2023-04-25T14:09:02.489Z,13.00
2023-04-25T14:11:29.733Z,12.90
2023-04-25T14:13:57.115Z,12.90
2023-04-25T14:16:26.829Z,12.40
2023-04-25T14:18:55.856Z,11.40
2023-04-25T14:21:23.235Z,10.70
2023-04-25T14:23:50.784Z,10.20
2023-04-25T14:26:18.318Z,9.80
2023-04-25T14:28:45.928Z,9.50
2023-04-25T14:31:13.467Z,9.50
2023-04-25T14:33:44.233Z,9.40
2023-04-25T14:36:11.635Z,9.40
2023-04-25T14:38:38.936Z,9.50
2023-04-25T14:41:06.653Z,9.80
2023-04-25T14:43:34.324Z,10.00
2023-04-25T14:46:01.936Z,10.30
2023-04-25T14:48:30.131Z,10.30
2023-04-25T14:51:01.246Z,10.60
2023-04-25T14:53:28.715Z,10.90
2023-04-25T14:55:56.571Z,11.20
2023-04-25T14:58:24.061Z,11.30
2023-04-25T15:00:51.943Z,11.20
2023-04-25T15:03:20.117Z,11.10
2023-04-25T15:05:47.735Z,11.10
2023-04-25T15:08:15.207Z,11.10
2023-04-25T15:10:42.759Z,11.10
2023-04-25T15:13:11.955Z,11.00
2023-04-25T15:15:39.562Z,11.10
2023-04-25T15:18:13.130Z,11.00
2023-04-25T15:20:41.638Z,11.20
2023-04-25T15:23:12.414Z,10.10
2023-04-25T15:25:40.058Z,9.80
2023-04-25T15:28:07.642Z,9.70
2023-04-25T15:30:35.322Z,9.60
2023-04-25T15:33:02.913Z,9.50
2023-04-25T15:35:30.542Z,8.90
2023-04-25T15:38:01.253Z,8.00
2023-04-25T15:40:28.953Z,7.80
2023-04-25T15:42:56.341Z,7.60
2023-04-25T15:45:26.492Z,7.70
2023-04-25T15:47:55.565Z,7.50
2023-04-25T15:50:23.524Z,7.60
2023-04-25T15:52:51.377Z,7.60
2023-04-25T15:55:20.126Z,7.70
2023-04-25T15:57:48.138Z,7.70
2023-04-25T16:00:17.587Z,7.60
2023-04-25T16:02:45.895Z,7.70
2023-04-25T16:05:14.839Z,7.60
2023-04-25T16:07:42.760Z,7.60
2023-04-25T16:10:11.569Z,7.70
2023-04-25T16:12:40.031Z,7.70
2023-04-25T16:15:08.299Z,7.80
2023-04-25T16:17:35.928Z,7.70
2023-04-25T16:20:10.062Z,7.70
2023-04-25T16:22:38.736Z,7.60
2023-04-25T16:25:06.803Z,7.70
2023-04-25T16:27:38.421Z,7.90
2023-04-25T16:30:09.684Z,7.90
2023-04-25T16:32:38.357Z,8.00
2023-04-25T16:35:06.452Z,8.00
2023-04-25T16:37:33.867Z,8.20
2023-04-25T16:40:01.718Z,8.20
2023-04-25T16:42:29.073Z,8.20
2023-04-25T16:44:56.514Z,8.20
2023-04-25T16:47:25.637Z,8.30
2023-04-25T16:49:53.704Z,8.20
2023-04-25T16:52:24.012Z,8.20
2023-04-25T16:54:51.360Z,8.10
2023-04-25T16:57:18.959Z,8.10
2023-04-25T16:59:48.744Z,8.00
2023-04-25T17:02:16.324Z,7.90
2023-04-25T17:04:44.283Z,7.90
2023-04-25T17:07:11.482Z,7.80
2023-04-25T17:09:39.291Z,7.80
2023-04-25T17:12:07.104Z,7.80
2023-04-25T17:14:36.278Z,7.80
2023-04-25T17:17:04.089Z,7.90
2023-04-25T17:19:32.451Z,7.90
2023-04-25T17:21:59.912Z,7.90
2023-04-25T17:24:27.285Z,7.90
2023-04-25T17:26:56.784Z,7.90
2023-04-25T17:29:24.223Z,8.00
2023-04-25T17:31:51.772Z,7.80
2023-04-25T17:34:19.222Z,7.70
2023-04-25T17:36:46.521Z,7.70
2023-04-25T17:39:17.709Z,7.70
2023-04-25T17:41:45.180Z,7.70
2023-04-25T17:44:12.667Z,7.80
2023-04-25T17:46:40.396Z,7.70
2023-04-25T17:49:07.718Z,7.70
2023-04-25T17:51:35.303Z,7.80
2023-04-25T17:54:02.596Z,7.80
2023-04-25T17:56:31.027Z,7.90
2023-04-25T17:58:58.517Z,7.90
2023-04-25T18:01:26.059Z,8.00
2023-04-25T18:03:53.685Z,8.10
2023-04-25T18:06:21.472Z,8.00
2023-04-25T18:08:49.923Z,7.90
2023-04-25T18:11:17.613Z,7.80
2023-04-25T18:13:45.671Z,7.90
2023-04-25T18:16:13.203Z,7.80
2023-04-25T18:18:43.521Z,7.60
2023-04-25T18:21:10.809Z,7.70
2023-04-25T18:23:38.937Z,7.50
2023-04-25T18:26:06.284Z,7.40
2023-04-25T18:28:34.574Z,7.50
2023-04-25T18:31:02.092Z,7.30
2023-04-25T18:33:29.674Z,7.30
2023-04-25T18:35:59.661Z,7.30
2023-04-25T18:41:10.531Z,7.50
2023-04-25T18:43:46.242Z,7.30
2023-04-25T18:46:13.763Z,7.40
2023-04-25T18:48:41.301Z,7.50
2023-04-25T18:51:09.308Z,7.40
2023-04-25T18:53:38.005Z,7.30
2023-04-25T18:56:05.637Z,7.20
2023-04-25T18:58:33.063Z,7.20
2023-04-25T19:01:01.815Z,7.00
2023-04-25T19:03:29.250Z,7.00
2023-04-25T19:05:56.993Z,7.00
2023-04-25T19:08:26.544Z,6.90
2023-04-25T19:10:54.756Z,7.20
2023-04-25T19:13:22.206Z,7.10
2023-04-25T19:15:49.664Z,7.10
2023-04-25T19:18:17.674Z,7.10
2023-04-25T19:20:45.082Z,7.20
2023-04-25T19:23:12.645Z,7.20
2023-04-25T19:25:40.352Z,7.20
2023-04-25T19:28:09.162Z,7.10
2023-04-25T19:30:36.585Z,7.10
2023-04-25T19:33:04.489Z,6.90
2023-04-25T19:35:33.618Z,7.00
2023-04-25T19:38:00.990Z,7.00
2023-04-25T19:40:28.215Z,6.90
2023-04-25T19:42:56.513Z,7.00
2023-04-25T19:45:24.092Z,7.30
2023-04-25T19:47:51.345Z,7.20
2023-04-25T19:50:18.827Z,7.10
2023-04-25T19:52:46.316Z,7.10
2023-04-25T19:55:13.554Z,7.20
2023-04-25T19:57:41.388Z,7.20
2023-04-25T20:00:13.233Z,7.20
2023-04-25T20:02:41.262Z,7.20
2023-04-25T20:05:09.940Z,7.30
2023-04-25T20:07:37.496Z,7.30
2023-04-25T20:10:07.291Z,7.30
2023-04-25T20:12:38.056Z,7.40
2023-04-25T20:15:06.004Z,7.40
2023-04-25T20:17:34.172Z,7.40
2023-04-25T20:20:01.692Z,7.40
2023-04-25T20:22:36.373Z,7.40
2023-04-25T20:25:05.589Z,7.30
2023-04-25T20:27:33.468Z,7.20
2023-04-25T20:30:05.279Z,7.30
2023-04-25T20:32:32.693Z,7.30
2023-04-25T20:35:00.668Z,7.30
2023-04-25T20:37:28.393Z,7.30
2023-04-25T20:39:55.633Z,7.10
2023-04-25T20:42:23.329Z,7.00
2023-04-25T20:44:51.393Z,7.20
2023-04-25T20:47:18.825Z,7.20
2023-04-25T20:49:46.572Z,7.20
2023-04-25T20:52:13.998Z,7.10
2023-04-25T20:54:41.826Z,6.90
2023-04-25T20:57:09.207Z,7.10
2023-04-25T20:59:36.456Z,7.20
2023-04-25T21:02:05.195Z,7.20
2023-04-25T21:04:32.580Z,7.10
2023-04-25T21:07:01.133Z,7.10
2023-04-25T21:09:28.574Z,7.00
2023-04-25T21:11:56.061Z,6.90
2023-04-25T21:14:25.733Z,6.90
2023-04-25T21:16:52.979Z,6.80
2023-04-25T21:19:20.421Z,6.70
2023-04-25T21:21:48.171Z,6.60
2023-04-25T21:24:15.821Z,6.40
2023-04-25T21:26:43.064Z,6.60
2023-04-25T21:29:10.473Z,6.60
2023-04-25T21:31:38.973Z,6.70
2023-04-25T21:34:07.299Z,6.70
2023-04-25T21:36:34.833Z,6.70
2023-04-25T21:39:02.114Z,6.80
2023-04-25T21:41:29.941Z,6.80
2023-04-25T21:43:57.550Z,6.80
2023-04-25T21:46:26.739Z,6.60
2023-04-25T21:48:55.082Z,6.60
2023-04-25T21:51:23.060Z,6.60
2023-04-25T21:53:50.472Z,6.70
2023-04-25T21:56:17.960Z,6.60
2023-04-25T21:58:45.946Z,6.50
2023-04-25T22:01:13.615Z,6.30
2023-04-25T22:03:41.642Z,6.30
2023-04-25T22:06:09.267Z,6.30
2023-04-25T22:08:36.918Z,6.30
2023-04-25T22:11:07.989Z,6.40
2023-04-25T22:13:36.133Z,6.50
2023-04-25T22:16:04.944Z,6.60
2023-04-25T22:18:32.150Z,6.40
2023-04-25T22:20:59.930Z,6.40
2023-04-25T22:23:27.339Z,6.50
2023-04-25T22:25:54.581Z,6.40
2023-04-25T22:28:21.955Z,6.30
2023-04-25T22:30:49.972Z,6.30
2023-04-25T22:33:17.433Z,6.20
2023-04-25T22:35:44.691Z,6.30
2023-04-25T22:38:11.888Z,6.10
2023-04-25T22:40:39.080Z,6.10
2023-04-25T22:43:06.616Z,6.20
2023-04-25T22:45:36.021Z,6.00
2023-04-25T22:48:03.685Z,5.90
2023-04-25T22:50:31.583Z,5.60
2023-04-25T22:52:58.740Z,5.50
2023-04-25T22:55:27.136Z,5.70
2023-04-25T22:57:55.184Z,5.60
2023-04-25T23:00:22.732Z,5.60
2023-04-25T23:02:51.308Z,5.60
2023-04-25T23:05:18.918Z,5.70
2023-04-25T23:07:46.416Z,5.50
2023-04-25T23:10:14.825Z,5.60
2023-04-25T23:12:42.562Z,5.40
2023-04-25T23:15:10.651Z,5.40
2023-04-25T23:17:38.339Z,5.30
2023-04-25T23:20:08.007Z,5.20
2023-04-25T23:22:35.208Z,5.20
2023-04-25T23:25:02.661Z,5.30
2023-04-25T23:27:30.129Z,5.20
2023-04-25T23:29:58.332Z,5.20
2023-04-25T23:32:26.860Z,5.00
2023-04-25T23:34:54.344Z,4.80
2023-04-25T23:37:21.834Z,4.70
2023-04-25T23:39:51.093Z,4.70
2023-04-25T23:42:18.772Z,4.80
2023-04-25T23:44:46.258Z,4.60
2023-04-25T23:47:14.592Z,4.50
2023-04-25T23:49:42.081Z,4.50
2023-04-25T23:52:10.071Z,4.60
2023-04-25T23:54:37.392Z,4.60
2023-04-25T23:57:04.924Z,4.50
2023-04-25T23:59:32.385Z,4.60
